createdAt,value
2022-11-30T00:01:24.519Z,6.72
2022-11-30T00:03:55.568Z,6.53
2022-11-30T00:06:23.516Z,6.85
2022-11-30T00:08:58.065Z,8.18
2022-11-30T00:11:28.457Z,7.97
2022-11-30T00:13:56.312Z,7.68
2022-11-30T00:16:23.572Z,8.30
2022-11-30T00:18:51.130Z,7.13
2022-11-30T00:21:19.552Z,6.82
2022-11-30T00:23:47.796Z,6.82
2022-11-30T00:26:16.850Z,7.25
2022-11-30T00:28:45.920Z,6.22
2022-11-30T00:31:15.911Z,6.60
2022-11-30T00:33:43.540Z,7.00
2022-11-30T00:36:16.770Z,6.25
2022-11-30T00:38:44.392Z,7.70
2022-11-30T00:41:11.539Z,6.68
2022-11-30T00:43:38.795Z,6.78
2022-11-30T00:46:06.204Z,7.63
2022-11-30T00:48:33.619Z,7.30
2022-11-30T00:51:00.489Z,6.78
2022-11-30T00:53:27.366Z,8.27
2022-11-30T00:55:54.447Z,7.82
2022-11-30T00:58:22.239Z,7.00
2022-11-30T01:00:49.104Z,6.57
2022-11-30T01:03:15.805Z,7.20
2022-11-30T01:05:43.405Z,7.38
2022-11-30T01:08:11.747Z,8.30
2022-11-30T01:10:40.051Z,7.82
2022-11-30T01:13:07.636Z,8.27
2022-11-30T01:15:40.155Z,7.57
2022-11-30T01:18:07.017Z,7.85
2022-11-30T01:20:34.011Z,7.30
2022-11-30T01:23:01.098Z,7.35
2022-11-30T01:25:27.818Z,8.70
2022-11-30T01:27:54.485Z,8.55
2022-11-30T01:30:21.138Z,8.95
2022-11-30T01:32:47.810Z,8.27
2022-11-30T01:35:14.764Z,8.65
2022-11-30T01:37:41.536Z,8.85
2022-11-30T01:40:10.254Z,8.77
2022-11-30T01:42:38.091Z,9.65
2022-11-30T01:45:06.725Z,11.23
2022-11-30T01:47:39.252Z,11.15
2022-11-30T01:50:11.304Z,10.93
2022-11-30T01:52:48.504Z,10.82
2022-11-30T01:55:21.553Z,11.13
2022-11-30T01:57:52.815Z,11.93
2022-11-30T02:00:20.212Z,12.10
2022-11-30T02:02:56.956Z,12.00
2022-11-30T02:05:25.927Z,12.90
2022-11-30T02:07:53.132Z,13.50
2022-11-30T02:10:26.653Z,15.05
2022-11-30T02:13:06.256Z,14.80
2022-11-30T02:15:49.627Z,12.95
2022-11-30T02:18:25.701Z,12.73
2022-11-30T02:21:17.242Z,14.25
2022-11-30T02:24:02.772Z,14.00
2022-11-30T02:26:48.141Z,15.50
2022-11-30T02:29:38.263Z,14.25
2022-11-30T02:32:30.564Z,14.32
2022-11-30T02:35:01.375Z,15.20
2022-11-30T02:37:29.979Z,14.48
2022-11-30T02:39:57.987Z,15.20
2022-11-30T02:42:24.644Z,16.30
2022-11-30T02:44:53.265Z,15.57
2022-11-30T02:47:38.139Z,14.43
2022-11-30T02:50:33.956Z,14.90
2022-11-30T02:53:01.050Z,16.10
2022-11-30T02:55:28.628Z,15.43
2022-11-30T02:57:55.271Z,16.88
2022-11-30T03:00:22.363Z,18.27
2022-11-30T03:02:49.980Z,16.02
2022-11-30T03:05:16.693Z,16.23
2022-11-30T03:07:43.441Z,16.45
2022-11-30T03:10:10.287Z,17.17
2022-11-30T03:12:37.280Z,16.80
2022-11-30T03:15:05.087Z,17.15
2022-11-30T03:17:31.802Z,16.65
2022-11-30T03:19:58.500Z,17.20
2022-11-30T03:22:25.164Z,16.27
2022-11-30T03:24:51.796Z,15.95
2022-11-30T03:27:18.716Z,15.10
2022-11-30T03:29:45.344Z,14.65
2022-11-30T03:32:12.024Z,14.55
2022-11-30T03:34:38.659Z,16.10
2022-11-30T03:37:05.364Z,13.52
2022-11-30T03:39:31.977Z,15.02
2022-11-30T03:41:58.655Z,15.32
2022-11-30T03:44:25.322Z,14.90
2022-11-30T03:46:52.035Z,12.45
2022-11-30T03:49:18.697Z,13.60
2022-11-30T03:51:45.371Z,15.27
2022-11-30T03:54:12.063Z,13.25
2022-11-30T03:56:38.800Z,13.65
2022-11-30T03:59:05.457Z,13.13
2022-11-30T04:01:33.012Z,12.68
2022-11-30T04:03:59.671Z,13.40
2022-11-30T04:06:26.368Z,13.25
2022-11-30T04:08:53.020Z,12.15
2022-11-30T04:11:19.730Z,12.82
2022-11-30T04:13:46.432Z,11.95
2022-11-30T04:16:13.125Z,12.35
2022-11-30T04:18:39.939Z,12.95
2022-11-30T04:21:07.333Z,12.80
2022-11-30T04:23:39.523Z,14.15
2022-11-30T04:26:10.848Z,13.07
2022-11-30T04:28:37.598Z,11.55
2022-11-30T04:31:04.695Z,13.32
2022-11-30T04:33:31.771Z,12.43
2022-11-30T04:36:00.515Z,12.52
2022-11-30T04:38:28.083Z,11.55
2022-11-30T04:40:55.069Z,12.43
2022-11-30T04:43:22.263Z,12.68
2022-11-30T04:45:49.250Z,12.77
2022-11-30T04:48:16.657Z,12.27
2022-11-30T04:50:43.506Z,12.52
2022-11-30T04:53:10.903Z,11.93
2022-11-30T04:55:38.365Z,12.07
2022-11-30T04:58:05.761Z,12.75
2022-11-30T05:00:32.551Z,12.07
2022-11-30T05:02:59.212Z,12.73
2022-11-30T05:05:25.896Z,11.35
2022-11-30T05:07:58.593Z,12.77
2022-11-30T05:10:27.086Z,12.20
2022-11-30T05:12:53.957Z,12.27
2022-11-30T05:15:21.741Z,12.00
2022-11-30T05:17:48.637Z,11.23
2022-11-30T05:20:15.557Z,12.43
2022-11-30T05:22:42.257Z,11.18
2022-11-30T05:25:09.808Z,12.30
2022-11-30T05:27:37.458Z,11.57
2022-11-30T05:30:05.401Z,12.00
2022-11-30T05:32:32.128Z,11.63
2022-11-30T05:34:58.920Z,11.07
2022-11-30T05:37:25.818Z,11.57
2022-11-30T05:39:52.485Z,12.32
2022-11-30T05:42:19.249Z,11.80
2022-11-30T05:44:46.220Z,12.13
2022-11-30T05:47:13.459Z,12.13
2022-11-30T05:49:40.144Z,11.13
2022-11-30T05:52:06.811Z,12.02
2022-11-30T05:54:34.461Z,11.48
2022-11-30T05:57:01.323Z,11.55
2022-11-30T05:59:27.969Z,10.50
2022-11-30T06:01:54.766Z,11.60
2022-11-30T06:04:21.783Z,11.13
2022-11-30T06:06:49.643Z,11.02
2022-11-30T06:09:16.704Z,10.23
2022-11-30T06:11:43.407Z,10.63
2022-11-30T06:14:10.083Z,10.60
2022-11-30T06:16:39.698Z,11.68
2022-11-30T06:19:07.052Z,10.77
2022-11-30T06:21:33.796Z,10.30
2022-11-30T06:24:00.487Z,11.02
2022-11-30T06:26:27.145Z,11.63
2022-11-30T06:28:53.849Z,11.95
2022-11-30T06:31:20.617Z,11.40
2022-11-30T06:33:47.344Z,10.73
2022-11-30T06:36:14.020Z,12.55
2022-11-30T06:38:40.732Z,12.45
2022-11-30T06:41:09.794Z,11.50
2022-11-30T06:43:38.550Z,11.00
2022-11-30T06:46:06.504Z,10.30
2022-11-30T06:48:33.948Z,10.68
2022-11-30T06:51:01.355Z,9.43
2022-11-30T06:53:28.193Z,10.00
2022-11-30T06:55:54.916Z,9.40
2022-11-30T06:58:21.948Z,9.00
2022-11-30T07:00:48.878Z,10.07
2022-11-30T07:03:15.726Z,9.80
2022-11-30T07:05:44.499Z,9.40
2022-11-30T07:08:16.326Z,9.30
2022-11-30T07:10:47.506Z,9.07
2022-11-30T07:13:17.199Z,10.23
2022-11-30T07:15:44.605Z,10.52
2022-11-30T07:18:11.842Z,11.13
2022-11-30T07:20:39.447Z,13.23
2022-11-30T07:23:25.661Z,12.85
2022-11-30T07:26:09.336Z,12.85
2022-11-30T07:28:41.042Z,13.00
2022-11-30T07:31:28.460Z,11.55
2022-11-30T07:33:56.982Z,13.73
2022-11-30T07:36:25.618Z,12.50
2022-11-30T07:38:52.492Z,13.48
2022-11-30T07:41:19.356Z,13.75
2022-11-30T07:43:46.057Z,12.30
2022-11-30T07:46:14.702Z,13.40
2022-11-30T07:48:42.715Z,12.07
2022-11-30T07:51:14.999Z,14.07
2022-11-30T07:53:41.975Z,14.32
2022-11-30T07:56:11.872Z,14.05
2022-11-30T07:58:39.284Z,14.95
2022-11-30T08:01:24.079Z,14.02
2022-11-30T08:03:51.995Z,15.27
2022-11-30T08:06:21.020Z,12.95
2022-11-30T08:08:50.437Z,13.60
2022-11-30T08:11:20.865Z,13.70
2022-11-30T08:13:47.957Z,15.25
2022-11-30T08:16:17.369Z,13.55
2022-11-30T08:18:44.123Z,15.05
2022-11-30T08:21:12.972Z,13.45
2022-11-30T08:23:42.196Z,15.00
2022-11-30T08:26:32.296Z,14.82
2022-11-30T08:29:00.769Z,14.95
2022-11-30T08:31:35.476Z,14.27
2022-11-30T08:34:13.350Z,13.43
2022-11-30T08:36:41.053Z,13.05
2022-11-30T08:39:11.812Z,13.45
2022-11-30T08:41:39.341Z,15.80
2022-11-30T08:44:06.577Z,14.07
2022-11-30T08:49:22.997Z,13.65
2022-11-30T08:52:16.310Z,13.05
2022-11-30T08:54:42.852Z,12.52
2022-11-30T08:57:09.705Z,12.68
2022-11-30T08:59:36.875Z,11.93
2022-11-30T09:02:03.540Z,12.25
2022-11-30T09:04:30.226Z,13.15
2022-11-30T09:06:59.297Z,12.60
2022-11-30T09:09:26.534Z,12.07
2022-11-30T09:11:53.281Z,12.90
2022-11-30T09:14:19.965Z,12.82
2022-11-30T09:16:46.686Z,13.65
2022-11-30T09:19:13.463Z,12.80
2022-11-30T09:21:40.189Z,10.90
2022-11-30T09:24:07.121Z,11.68
2022-11-30T09:26:33.812Z,11.23
2022-11-30T09:29:00.632Z,10.80
2022-11-30T09:31:27.651Z,9.75
2022-11-30T09:33:57.215Z,8.48
2022-11-30T09:36:27.263Z,8.50
2022-11-30T09:38:55.154Z,8.57
2022-11-30T09:41:30.892Z,9.10
2022-11-30T09:44:00.182Z,8.88
2022-11-30T09:46:35.978Z,9.85
2022-11-30T09:49:12.221Z,9.35
2022-11-30T09:51:49.282Z,8.07
2022-11-30T09:54:35.600Z,8.77
2022-11-30T09:57:20.997Z,6.75
2022-11-30T09:59:57.694Z,8.63
2022-11-30T10:02:38.509Z,7.35
2022-11-30T10:05:21.158Z,6.93
2022-11-30T10:08:03.781Z,9.00
2022-11-30T10:10:51.075Z,9.27
2022-11-30T10:13:42.275Z,9.52
2022-11-30T10:16:12.036Z,8.75
2022-11-30T10:19:05.590Z,9.15
2022-11-30T10:21:44.486Z,9.00
2022-11-30T10:24:24.914Z,9.65
2022-11-30T10:27:11.996Z,9.80
2022-11-30T10:29:42.039Z,9.05
2022-11-30T10:32:25.088Z,10.40
2022-11-30T10:35:01.861Z,10.05
2022-11-30T10:37:36.215Z,11.20
2022-11-30T10:40:38.861Z,10.88
2022-11-30T10:43:19.601Z,11.73
2022-11-30T10:45:48.929Z,11.13
2022-11-30T10:48:24.477Z,11.35
2022-11-30T10:50:52.264Z,11.98
2022-11-30T10:53:19.162Z,12.18
2022-11-30T10:56:06.093Z,11.00
2022-11-30T10:59:03.698Z,11.80
2022-11-30T11:01:39.728Z,12.02
2022-11-30T11:04:12.507Z,11.20
2022-11-30T11:06:50.204Z,11.05
2022-11-30T11:09:46.785Z,11.05
2022-11-30T11:12:28.457Z,11.35
2022-11-30T11:15:19.914Z,11.07
2022-11-30T11:17:46.931Z,9.52
2022-11-30T11:20:34.161Z,8.80
2022-11-30T11:23:01.877Z,9.93
2022-11-30T11:25:36.811Z,8.13
2022-11-30T11:28:15.407Z,9.90
2022-11-30T11:30:42.410Z,10.45
2022-11-30T11:33:12.270Z,10.10
2022-11-30T11:35:39.066Z,9.15
2022-11-30T11:38:24.648Z,9.60
2022-11-30T11:41:17.326Z,10.38
2022-11-30T11:44:13.680Z,10.00
2022-11-30T11:46:57.558Z,9.52
2022-11-30T11:49:30.231Z,8.63
2022-11-30T11:52:13.681Z,8.73
2022-11-30T11:54:51.954Z,7.80
2022-11-30T11:57:23.133Z,7.82
2022-11-30T12:00:16.360Z,7.13
2022-11-30T12:03:06.846Z,8.07
2022-11-30T12:05:41.109Z,7.43
2022-11-30T12:08:13.246Z,6.82
2022-11-30T12:11:00.733Z,6.60
2022-11-30T12:13:37.922Z,5.78
2022-11-30T12:16:19.897Z,6.45
2022-11-30T12:18:49.665Z,6.78
2022-11-30T12:21:27.514Z,6.60
2022-11-30T12:24:16.122Z,6.40
2022-11-30T12:26:53.332Z,5.72
2022-11-30T12:29:58.431Z,6.20
2022-11-30T12:32:53.972Z,5.32
2022-11-30T12:35:27.734Z,5.40
2022-11-30T12:38:01.792Z,5.97
2022-11-30T12:40:35.882Z,5.22
2022-11-30T12:43:34.376Z,6.25
2022-11-30T12:46:15.088Z,8.30
2022-11-30T12:48:47.165Z,7.40
2022-11-30T12:51:39.654Z,6.15
2022-11-30T12:54:21.896Z,6.80
2022-11-30T12:57:07.111Z,7.07
2022-11-30T12:59:53.453Z,8.65
2022-11-30T13:02:39.935Z,6.85
2022-11-30T13:05:13.948Z,5.15
2022-11-30T13:07:46.458Z,5.85
2022-11-30T13:10:40.258Z,6.53
2022-11-30T13:13:15.040Z,4.28
2022-11-30T13:15:44.435Z,4.00
2022-11-30T13:18:24.372Z,3.88
2022-11-30T13:21:16.868Z,2.92
2022-11-30T13:24:14.547Z,3.45
2022-11-30T13:26:47.610Z,3.10
2022-11-30T13:29:39.068Z,3.67
2022-11-30T13:32:33.983Z,3.63
2022-11-30T13:35:29.508Z,4.20
2022-11-30T13:38:34.710Z,4.15
2022-11-30T13:41:04.556Z,4.03
2022-11-30T13:43:36.842Z,4.15
2022-11-30T13:46:07.789Z,3.65
2022-11-30T13:48:40.545Z,4.55
2022-11-30T13:51:07.892Z,4.97
2022-11-30T13:53:38.698Z,3.67
2022-11-30T13:56:27.230Z,5.35
2022-11-30T13:59:32.036Z,7.35
2022-11-30T14:02:42.961Z,7.15
2022-11-30T14:05:22.809Z,8.75
2022-11-30T14:07:52.739Z,9.30
2022-11-30T14:10:31.122Z,9.35
2022-11-30T14:13:28.217Z,9.82
2022-11-30T14:15:58.027Z,8.52
2022-11-30T14:18:38.416Z,8.57
2022-11-30T14:21:26.070Z,8.35
2022-11-30T14:24:01.573Z,7.65
2022-11-30T14:26:40.478Z,8.70
2022-11-30T14:29:07.503Z,7.70
2022-11-30T14:31:42.532Z,8.10
2022-11-30T14:34:50.184Z,7.40
2022-11-30T14:37:27.201Z,8.43
2022-11-30T14:39:58.214Z,7.68
2022-11-30T14:42:28.023Z,7.32
2022-11-30T14:44:56.740Z,8.90
2022-11-30T14:47:28.978Z,8.90
2022-11-30T14:49:58.148Z,8.30
2022-11-30T14:52:47.467Z,8.68
2022-11-30T14:55:20.474Z,8.63
2022-11-30T14:58:02.687Z,7.28
2022-11-30T15:00:38.316Z,8.52
2022-11-30T15:03:18.402Z,7.97
2022-11-30T15:05:45.204Z,8.32
2022-11-30T15:08:15.178Z,9.45
2022-11-30T15:10:42.885Z,9.20
2022-11-30T15:13:16.765Z,8.75
2022-11-30T15:15:55.197Z,8.20
2022-11-30T15:18:24.630Z,8.75
2022-11-30T15:21:12.836Z,8.40
2022-11-30T15:23:39.638Z,8.90
2022-11-30T15:26:18.849Z,8.02
2022-11-30T15:28:54.020Z,15.10
2022-11-30T15:31:21.200Z,9.55
2022-11-30T15:33:50.349Z,11.07
2022-11-30T15:36:32.332Z,12.35
2022-11-30T15:39:04.773Z,11.52
2022-11-30T15:41:33.209Z,9.20
2022-11-30T15:44:02.123Z,14.27
2022-11-30T15:46:46.353Z,10.93
2022-11-30T15:49:25.881Z,8.73
2022-11-30T15:52:10.916Z,7.28
2022-11-30T15:54:49.219Z,5.78
2022-11-30T15:57:17.256Z,7.20
2022-11-30T15:59:44.170Z,6.55
2022-11-30T16:02:37.184Z,5.55
2022-11-30T16:05:08.422Z,8.20
2022-11-30T16:08:02.876Z,5.78
2022-11-30T16:10:37.912Z,5.18
2022-11-30T16:13:05.741Z,6.75
2022-11-30T16:15:35.554Z,5.13
2022-11-30T16:18:08.456Z,5.93
2022-11-30T16:20:35.221Z,6.07
2022-11-30T16:23:05.720Z,5.22
2022-11-30T16:25:32.863Z,5.63
2022-11-30T16:27:59.646Z,6.10
2022-11-30T16:30:26.320Z,6.63
2022-11-30T16:32:53.060Z,6.20
2022-11-30T16:35:35.120Z,5.22
2022-11-30T16:38:01.885Z,4.80
2022-11-30T16:40:30.755Z,5.25
2022-11-30T16:43:00.731Z,6.07
2022-11-30T16:45:36.005Z,4.75
2022-11-30T16:48:02.968Z,4.70
2022-11-30T16:50:31.488Z,6.30
2022-11-30T16:52:58.820Z,5.95
2022-11-30T16:55:30.885Z,6.10
2022-11-30T16:57:58.692Z,9.75
2022-11-30T17:00:25.500Z,5.85
2022-11-30T17:03:03.931Z,7.55
2022-11-30T17:05:31.934Z,7.78
2022-11-30T17:07:58.600Z,7.38
2022-11-30T17:10:25.305Z,8.30
2022-11-30T17:12:52.017Z,15.75
2022-11-30T17:15:23.627Z,9.13
2022-11-30T17:17:50.364Z,8.10
2022-11-30T17:20:18.141Z,9.68
2022-11-30T17:22:45.206Z,7.68
2022-11-30T17:25:17.085Z,9.57
2022-11-30T17:27:44.469Z,8.55
2022-11-30T17:30:13.897Z,9.63
2022-11-30T17:32:40.661Z,9.57
2022-11-30T17:35:08.919Z,8.15
2022-11-30T17:37:36.291Z,7.68
2022-11-30T17:40:04.178Z,8.35
2022-11-30T17:42:31.193Z,8.05
2022-11-30T17:44:57.945Z,9.05
2022-11-30T17:47:24.874Z,9.23
2022-11-30T17:49:51.684Z,9.10
2022-11-30T17:52:18.601Z,8.20
2022-11-30T17:54:45.436Z,9.18
2022-11-30T17:57:12.391Z,7.72
2022-11-30T17:59:39.062Z,7.18
2022-11-30T18:02:06.264Z,6.30
2022-11-30T18:04:32.908Z,5.45
2022-11-30T18:06:59.645Z,4.30
2022-11-30T18:09:26.316Z,4.20
2022-11-30T18:11:53.104Z,5.10
2022-11-30T18:14:19.770Z,5.50
2022-11-30T18:16:46.635Z,4.72
2022-11-30T18:19:14.991Z,5.15
2022-11-30T18:21:44.223Z,4.97
2022-11-30T18:24:12.341Z,4.80
2022-11-30T18:26:39.586Z,4.63
2022-11-30T18:29:07.217Z,5.45
2022-11-30T18:31:33.952Z,5.50
2022-11-30T18:34:03.431Z,6.72
2022-11-30T18:36:31.221Z,5.47
2022-11-30T18:38:58.301Z,5.10
2022-11-30T18:41:26.422Z,5.28
2022-11-30T18:43:53.740Z,5.22
2022-11-30T18:46:20.722Z,5.68
2022-11-30T18:48:52.010Z,5.20
2022-11-30T18:51:27.450Z,5.15
2022-11-30T18:53:57.837Z,5.10
2022-11-30T18:56:26.163Z,5.03
2022-11-30T18:58:57.672Z,5.13
2022-11-30T19:01:25.304Z,5.50
2022-11-30T19:03:53.504Z,5.05
2022-11-30T19:06:20.680Z,5.05
2022-11-30T19:08:48.140Z,5.53
2022-11-30T19:11:15.945Z,7.88
2022-11-30T19:13:43.254Z,6.03
2022-11-30T19:16:15.864Z,7.97
2022-11-30T19:18:45.065Z,6.43
2022-11-30T19:21:18.567Z,7.30
2022-11-30T19:23:46.200Z,6.20
2022-11-30T19:26:14.363Z,5.63
2022-11-30T19:28:42.600Z,5.22
2022-11-30T19:31:17.641Z,5.88
2022-11-30T19:33:47.456Z,5.82
2022-11-30T19:36:17.655Z,6.25
2022-11-30T19:38:44.918Z,5.93
2022-11-30T19:41:13.481Z,6.57
2022-11-30T19:43:40.545Z,6.72
2022-11-30T19:46:16.145Z,6.82
2022-11-30T19:48:44.754Z,6.93
2022-11-30T19:51:18.000Z,6.63
2022-11-30T19:53:45.484Z,6.30
2022-11-30T19:56:14.865Z,6.20
2022-11-30T19:58:46.243Z,7.13
2022-11-30T20:01:14.283Z,6.25
2022-11-30T20:03:41.255Z,6.60
2022-11-30T20:06:08.013Z,6.50
2022-11-30T20:08:34.702Z,7.60
2022-11-30T20:11:05.209Z,6.82
2022-11-30T20:13:31.947Z,6.43
2022-11-30T20:15:58.674Z,6.80
2022-11-30T20:18:25.433Z,7.70
2022-11-30T20:20:52.097Z,7.15
2022-11-30T20:23:18.832Z,8.38
2022-11-30T20:25:45.530Z,7.40
2022-11-30T20:28:12.731Z,7.53
2022-11-30T20:30:39.867Z,7.70
2022-11-30T20:33:06.587Z,7.60
2022-11-30T20:35:35.233Z,7.75
2022-11-30T20:38:01.919Z,7.47
2022-11-30T20:40:28.601Z,8.40
2022-11-30T20:42:55.340Z,10.13
2022-11-30T20:45:21.992Z,9.88
2022-11-30T20:47:48.670Z,11.93
2022-11-30T20:50:15.341Z,11.75
2022-11-30T20:52:42.015Z,10.68
2022-11-30T20:55:09.162Z,11.20
2022-11-30T20:57:35.865Z,12.13
2022-11-30T21:00:06.516Z,12.40
2022-11-30T21:02:36.863Z,11.75
2022-11-30T21:05:03.650Z,10.98
2022-11-30T21:07:30.363Z,11.80
2022-11-30T21:09:58.074Z,11.63
2022-11-30T21:12:24.799Z,11.20
2022-11-30T21:14:51.458Z,14.43
2022-11-30T21:17:18.132Z,12.35
2022-11-30T21:19:44.849Z,13.25
2022-11-30T21:22:12.399Z,14.13
2022-11-30T21:24:39.212Z,13.13
2022-11-30T21:27:06.045Z,12.00
2022-11-30T21:29:32.850Z,15.18
2022-11-30T21:31:59.538Z,13.20
2022-11-30T21:34:26.515Z,11.30
2022-11-30T21:36:54.756Z,12.23
2022-11-30T21:39:21.732Z,12.77
2022-11-30T21:41:48.950Z,11.60
2022-11-30T21:44:16.642Z,13.45
2022-11-30T21:46:46.657Z,11.85
2022-11-30T21:49:15.506Z,13.02
2022-11-30T21:51:42.803Z,15.30
2022-11-30T21:54:12.476Z,11.70
2022-11-30T21:56:42.740Z,13.90
2022-11-30T21:59:12.952Z,12.40
2022-11-30T22:01:43.409Z,11.77
2022-11-30T22:04:11.744Z,11.60
2022-11-30T22:06:40.037Z,9.95
2022-11-30T22:09:17.334Z,10.45
2022-11-30T22:11:45.837Z,10.55
2022-11-30T22:14:16.248Z,10.15
2022-11-30T22:16:45.965Z,8.95
2022-11-30T22:19:13.026Z,8.85
2022-11-30T22:21:41.344Z,10.05
2022-11-30T22:24:12.762Z,9.50
2022-11-30T22:26:42.074Z,8.70
2022-11-30T22:29:13.681Z,8.68
2022-11-30T22:31:43.344Z,8.50
2022-11-30T22:34:10.882Z,9.15
2022-11-30T22:36:39.887Z,8.85
2022-11-30T22:39:11.131Z,7.82
2022-11-30T22:41:39.878Z,9.20
2022-11-30T22:44:06.896Z,8.93
2022-11-30T22:46:35.560Z,10.32
2022-11-30T22:49:05.409Z,8.70
2022-11-30T22:51:35.138Z,9.77
2022-11-30T22:54:02.881Z,9.60
2022-11-30T22:56:32.754Z,9.18
2022-11-30T22:59:01.118Z,9.30
2022-11-30T23:01:36.307Z,9.20
2022-11-30T23:04:08.457Z,8.85
2022-11-30T23:06:36.687Z,8.98
2022-11-30T23:09:04.634Z,9.23
2022-11-30T23:11:32.017Z,8.85
2022-11-30T23:13:59.185Z,8.40
2022-11-30T23:16:26.016Z,9.55
2022-11-30T23:18:55.711Z,9.32
2022-11-30T23:21:30.132Z,10.20
2022-11-30T23:23:59.567Z,9.10
2022-11-30T23:26:29.979Z,8.43
2022-11-30T23:29:00.519Z,9.13
2022-11-30T23:31:33.737Z,8.68
2022-11-30T23:34:05.271Z,10.40
2022-11-30T23:36:32.884Z,9.60
2022-11-30T23:39:02.158Z,9.65
2022-11-30T23:41:29.231Z,8.95
2022-11-30T23:43:56.482Z,9.93
2022-11-30T23:46:23.618Z,9.77
2022-11-30T23:48:51.201Z,10.23
2022-11-30T23:51:18.239Z,8.57
2022-11-30T23:53:44.977Z,9.50
2022-11-30T23:56:17.273Z,9.02
2022-11-30T23:58:45.396Z,9.27
